createdAt,value
2019-06-08T00:01:58.881Z,18.14
2019-06-08T00:04:26.551Z,18.33
2019-06-08T00:06:54.220Z,18.56
2019-06-08T00:09:22.551Z,18.69
2019-06-08T00:11:51.250Z,18.85
2019-06-08T00:14:19.171Z,19.13
2019-06-08T00:16:46.964Z,19.23
2019-06-08T00:19:15.285Z,19.45
2019-06-08T00:21:43.077Z,19.49
2019-06-08T00:24:11.026Z,19.48
2019-06-08T00:26:38.680Z,19.92
2019-06-08T00:29:06.331Z,20.00
2019-06-08T00:31:33.998Z,19.98
2019-06-08T00:34:01.744Z,20.10
2019-06-08T00:36:29.468Z,20.24
2019-06-08T00:38:57.150Z,20.33
2019-06-08T00:41:25.528Z,20.29
2019-06-08T00:43:53.737Z,20.17
2019-06-08T00:46:21.461Z,19.94
2019-06-08T00:48:49.233Z,19.76
2019-06-08T00:51:16.898Z,19.64
2019-06-08T00:53:44.560Z,19.62
2019-06-08T00:56:12.225Z,19.50
2019-06-08T00:58:39.880Z,19.34
2019-06-08T01:01:07.546Z,19.23
2019-06-08T01:03:35.188Z,19.02
2019-06-08T01:06:02.857Z,18.97
2019-06-08T01:10:56.429Z,18.84
2019-06-08T01:13:24.903Z,18.88
2019-06-08T01:18:20.717Z,18.71
2019-06-08T01:20:47.980Z,18.62
2019-06-08T01:25:41.575Z,18.56
2019-06-08T01:28:09.288Z,18.59
2019-06-08T01:33:02.951Z,18.64
2019-06-08T01:35:30.965Z,18.50
2019-06-08T01:37:58.734Z,18.45
2019-06-08T01:40:27.477Z,18.50
2019-06-08T01:42:55.233Z,18.53
2019-06-08T01:45:32.809Z,18.50
2019-06-08T01:48:00.631Z,18.50
2019-06-08T01:50:28.442Z,18.47
2019-06-08T01:52:56.211Z,18.47
2019-06-08T01:55:25.068Z,18.34
2019-06-08T01:57:52.899Z,18.14
2019-06-08T02:00:29.883Z,18.23
2019-06-08T02:02:50.598Z,18.18
2019-06-08T02:05:18.678Z,18.09
2019-06-08T02:07:46.393Z,18.10
2019-06-08T02:10:14.052Z,18.13
2019-06-08T02:12:41.704Z,18.19
2019-06-08T02:15:09.358Z,18.06
2019-06-08T02:17:37.094Z,18.16
2019-06-08T02:20:04.735Z,18.02
2019-06-08T02:22:33.084Z,18.03
2019-06-08T02:25:00.907Z,18.10
2019-06-08T02:27:29.281Z,18.14
2019-06-08T02:29:56.991Z,18.07
2019-06-08T02:32:24.646Z,18.11
2019-06-08T02:34:52.320Z,17.93
2019-06-08T02:37:20.032Z,17.76
2019-06-08T02:39:47.681Z,17.97
2019-06-08T02:42:15.328Z,17.85
2019-06-08T02:44:42.979Z,17.90
2019-06-08T02:47:10.637Z,17.95
2019-06-08T02:49:39.794Z,17.70
2019-06-08T02:52:07.543Z,17.53
2019-06-08T02:54:37.189Z,17.58
2019-06-08T02:57:04.556Z,17.31
2019-06-08T02:59:32.911Z,17.11
2019-06-08T03:02:00.712Z,17.00
2019-06-08T03:04:29.800Z,17.16
2019-06-08T03:06:57.632Z,17.02
2019-06-08T03:09:25.350Z,16.91
2019-06-08T03:11:52.997Z,16.98
2019-06-08T03:14:20.951Z,16.64
2019-06-08T03:16:48.593Z,16.74
2019-06-08T03:19:22.455Z,16.89
2019-06-08T03:21:45.821Z,16.94
2019-06-08T03:24:13.468Z,16.98
2019-06-08T03:26:41.890Z,16.98
2019-06-08T03:29:10.597Z,17.00
2019-06-08T03:31:46.089Z,17.00
2019-06-08T03:34:08.502Z,17.00
2019-06-08T03:36:43.783Z,16.92
2019-06-08T03:39:05.849Z,16.98
2019-06-08T03:41:34.285Z,17.07
2019-06-08T03:44:02.848Z,17.00
2019-06-08T03:46:30.560Z,17.07
2019-06-08T03:48:58.258Z,16.96
2019-06-08T03:51:25.899Z,16.96
2019-06-08T03:53:53.634Z,17.03
2019-06-08T03:56:21.284Z,17.12
2019-06-08T03:58:49.020Z,17.31
2019-06-08T04:01:16.707Z,17.35
2019-06-08T04:03:46.025Z,17.28
2019-06-08T04:06:14.043Z,17.09
2019-06-08T04:08:42.833Z,17.30
2019-06-08T04:11:11.062Z,17.14
2019-06-08T04:13:39.919Z,17.15
2019-06-08T04:16:07.867Z,17.10
2019-06-08T04:18:35.511Z,17.06
2019-06-08T04:21:03.178Z,17.40
2019-06-08T04:23:30.834Z,17.18
2019-06-08T04:25:58.494Z,17.57
2019-06-08T04:28:26.142Z,17.37
2019-06-08T04:30:53.797Z,17.29
2019-06-08T04:33:21.501Z,17.42
2019-06-08T04:35:50.756Z,17.68
2019-06-08T04:38:18.703Z,17.49
2019-06-08T04:40:48.036Z,17.36
2019-06-08T04:43:15.745Z,17.35
2019-06-08T04:45:45.183Z,17.26
2019-06-08T04:48:12.766Z,17.28
2019-06-08T04:50:40.860Z,17.66
2019-06-08T04:53:08.685Z,17.84
2019-06-08T04:55:36.352Z,17.90
2019-06-08T04:58:04.015Z,17.88
2019-06-08T05:00:32.277Z,18.64
2019-06-08T05:03:00.087Z,18.37
2019-06-08T05:05:27.854Z,17.91
2019-06-08T05:07:55.560Z,18.19
2019-06-08T05:10:25.240Z,18.13
2019-06-08T05:12:52.898Z,18.06
2019-06-08T05:15:20.580Z,18.23
2019-06-08T05:17:49.725Z,18.22
2019-06-08T05:20:17.667Z,18.82
2019-06-08T05:22:45.538Z,20.16
2019-06-08T05:25:13.463Z,20.49
2019-06-08T05:27:41.245Z,20.12
2019-06-08T05:30:09.191Z,20.45
2019-06-08T05:32:36.997Z,20.36
2019-06-08T05:35:04.656Z,19.87
2019-06-08T05:37:32.301Z,19.52
2019-06-08T05:39:59.971Z,19.69
2019-06-08T05:42:27.620Z,20.29
2019-06-08T05:44:55.307Z,20.91
2019-06-08T05:47:22.939Z,21.30
2019-06-08T05:49:50.592Z,20.45
2019-06-08T05:52:18.242Z,20.19
2019-06-08T05:54:45.904Z,19.49
2019-06-08T05:57:13.547Z,19.18
2019-06-08T05:59:42.085Z,18.77
2019-06-08T06:02:09.854Z,18.58
2019-06-08T06:04:38.023Z,18.48
2019-06-08T06:07:05.703Z,18.26
2019-06-08T06:09:33.870Z,18.14
2019-06-08T06:12:01.516Z,18.21
2019-06-08T06:14:29.248Z,18.12
2019-06-08T06:16:56.988Z,18.03
2019-06-08T06:19:24.632Z,18.04
2019-06-08T06:21:52.276Z,18.08
2019-06-08T06:24:19.926Z,18.08
2019-06-08T06:26:47.583Z,17.93
2019-06-08T06:29:15.237Z,18.07
2019-06-08T06:31:43.649Z,17.93
2019-06-08T06:34:12.052Z,18.20
2019-06-08T06:36:39.696Z,18.05
2019-06-08T06:39:07.344Z,18.07
2019-06-08T06:41:35.005Z,18.08
2019-06-08T06:44:02.740Z,18.27
2019-06-08T06:46:30.503Z,18.13
2019-06-08T06:48:58.157Z,18.38
2019-06-08T06:51:26.927Z,18.51
2019-06-08T06:53:54.672Z,18.88
2019-06-08T06:56:22.344Z,19.05
2019-06-08T06:58:49.983Z,18.98
2019-06-08T07:01:17.732Z,19.20
2019-06-08T07:03:46.063Z,19.40
2019-06-08T07:06:13.820Z,19.52
2019-06-08T07:08:42.116Z,19.85
2019-06-08T07:11:09.916Z,19.47
2019-06-08T07:13:37.564Z,19.76
2019-06-08T07:16:17.756Z,19.57
2019-06-08T07:18:34.597Z,19.48
2019-06-08T07:21:02.243Z,19.49
2019-06-08T07:23:29.901Z,19.46
2019-06-08T07:25:58.664Z,19.22
2019-06-08T07:28:26.401Z,19.15
2019-06-08T07:30:54.909Z,18.77
2019-06-08T07:33:22.597Z,18.81
2019-06-08T07:35:51.452Z,18.88
2019-06-08T07:38:19.295Z,18.88
2019-06-08T07:40:47.220Z,18.96
2019-06-08T07:43:16.088Z,18.97
2019-06-08T07:45:43.745Z,19.12
2019-06-08T07:48:11.402Z,19.21
2019-06-08T07:50:39.154Z,19.17
2019-06-08T07:53:06.869Z,19.15
2019-06-08T07:55:34.544Z,19.22
2019-06-08T07:58:02.206Z,18.91
2019-06-08T08:00:29.860Z,19.16
2019-06-08T08:02:58.303Z,19.15
2019-06-08T08:05:26.048Z,19.61
2019-06-08T08:07:54.775Z,19.75
2019-06-08T08:10:22.535Z,19.85
2019-06-08T08:12:50.916Z,19.43
2019-06-08T08:15:18.645Z,19.25
2019-06-08T08:17:46.369Z,19.37
2019-06-08T08:20:14.014Z,19.67
2019-06-08T08:22:41.655Z,19.36
2019-06-08T08:25:09.318Z,19.47
2019-06-08T08:27:37.619Z,19.57
2019-06-08T08:30:08.162Z,19.76
2019-06-08T08:32:37.814Z,19.64
2019-06-08T08:35:04.282Z,19.52
2019-06-08T08:37:31.938Z,19.56
2019-06-08T08:40:01.351Z,19.49
2019-06-08T08:42:30.116Z,19.63
2019-06-08T08:45:02.698Z,19.54
2019-06-08T08:47:27.774Z,19.22
2019-06-08T08:49:58.703Z,19.22
2019-06-08T08:52:34.486Z,19.02
2019-06-08T08:54:59.128Z,19.12
2019-06-08T08:57:24.805Z,18.91
2019-06-08T08:59:55.191Z,19.00
2019-06-08T09:02:21.900Z,19.33
2019-06-08T09:04:50.641Z,19.53
2019-06-08T09:07:18.915Z,19.57
2019-06-08T09:09:48.233Z,19.85
2019-06-08T09:12:18.222Z,19.74
2019-06-08T09:14:47.749Z,19.53
2019-06-08T09:17:14.832Z,19.46
2019-06-08T09:19:42.493Z,19.50
2019-06-08T09:22:10.141Z,19.64
2019-06-08T09:24:39.080Z,19.47
2019-06-08T09:27:08.015Z,19.44
2019-06-08T09:29:38.593Z,19.37
2019-06-08T09:32:05.389Z,19.42
2019-06-08T09:34:33.121Z,19.43
2019-06-08T09:37:02.881Z,19.49
2019-06-08T09:39:30.136Z,19.32
2019-06-08T09:42:00.435Z,19.33
2019-06-08T09:44:28.110Z,19.34
2019-06-08T09:46:59.075Z,19.50
2019-06-08T09:49:27.883Z,19.66
2019-06-08T09:51:56.492Z,19.68
2019-06-08T09:54:24.068Z,19.54
2019-06-08T09:56:51.777Z,19.57
2019-06-08T09:59:19.433Z,19.52
2019-06-08T10:01:47.249Z,19.76
2019-06-08T10:04:14.933Z,19.66
2019-06-08T10:06:42.593Z,19.49
2019-06-08T10:09:10.270Z,19.59
2019-06-08T10:11:38.117Z,19.78
2019-06-08T10:14:11.594Z,19.51
2019-06-08T10:16:38.012Z,19.83
2019-06-08T10:19:07.063Z,19.38
2019-06-08T10:21:33.997Z,19.73
2019-06-08T10:24:04.697Z,19.67
2019-06-08T10:26:31.016Z,20.03
2019-06-08T10:29:02.222Z,20.32
2019-06-08T10:31:38.980Z,20.35
2019-06-08T10:34:01.575Z,20.55
2019-06-08T10:36:28.401Z,20.56
2019-06-08T10:38:59.386Z,20.46
2019-06-08T10:41:27.863Z,20.39
2019-06-08T10:43:57.030Z,20.31
2019-06-08T10:46:24.952Z,20.40
2019-06-08T10:48:52.616Z,20.87
2019-06-08T10:51:20.283Z,20.57
2019-06-08T10:53:52.076Z,20.71
2019-06-08T10:56:18.835Z,20.96
2019-06-08T10:58:49.454Z,21.16
2019-06-08T11:01:18.593Z,20.80
2019-06-08T11:03:45.429Z,20.50
2019-06-08T11:06:13.606Z,20.99
2019-06-08T11:08:41.529Z,21.61
2019-06-08T11:11:11.752Z,22.35
2019-06-08T11:13:38.920Z,22.44
2019-06-08T11:16:08.401Z,22.11
2019-06-08T11:18:35.929Z,21.63
2019-06-08T11:21:05.804Z,21.61
2019-06-08T11:23:33.929Z,22.28
2019-06-08T11:26:04.629Z,22.72
2019-06-08T11:28:30.935Z,22.69
2019-06-08T11:30:59.688Z,22.74
2019-06-08T11:33:30.318Z,23.15
2019-06-08T11:35:58.174Z,22.94
2019-06-08T11:38:28.717Z,22.84
2019-06-08T11:40:57.924Z,22.53
2019-06-08T11:43:24.912Z,22.39
2019-06-08T11:45:52.586Z,22.77
2019-06-08T11:48:20.315Z,22.99
2019-06-08T11:50:49.048Z,22.63
2019-06-08T11:53:18.133Z,22.36
2019-06-08T11:55:50.658Z,22.52
2019-06-08T11:58:19.206Z,22.42
2019-06-08T12:00:44.893Z,21.90
2019-06-08T12:03:13.108Z,22.08
2019-06-08T12:05:40.985Z,22.51
2019-06-08T12:08:08.856Z,22.89
2019-06-08T12:10:38.224Z,22.87
2019-06-08T12:13:07.117Z,22.92
2019-06-08T12:15:35.400Z,22.97
2019-06-08T12:18:03.399Z,23.48
2019-06-08T12:20:31.320Z,23.50
2019-06-08T12:22:59.059Z,23.81
2019-06-08T12:25:26.846Z,24.13
2019-06-08T12:27:54.792Z,23.75
2019-06-08T12:30:26.224Z,22.85
2019-06-08T12:32:51.884Z,22.73
2019-06-08T12:35:19.540Z,22.74
2019-06-08T12:37:48.391Z,22.73
2019-06-08T12:40:18.972Z,22.37
2019-06-08T12:42:45.931Z,22.24
2019-06-08T12:45:13.587Z,22.16
2019-06-08T12:47:41.262Z,22.19
2019-06-08T12:50:11.794Z,22.48
2019-06-08T12:52:39.148Z,22.81
2019-06-08T12:55:12.577Z,22.59
2019-06-08T12:57:36.995Z,22.57
2019-06-08T13:00:04.656Z,23.01
2019-06-08T13:02:32.323Z,22.57
2019-06-08T13:04:59.993Z,22.55
2019-06-08T13:07:28.162Z,23.25
2019-06-08T13:09:58.173Z,23.64
2019-06-08T13:12:25.364Z,23.41
2019-06-08T13:14:53.017Z,23.63
2019-06-08T13:17:21.344Z,23.54
2019-06-08T13:19:49.220Z,23.32
2019-06-08T13:22:19.341Z,23.52
2019-06-08T13:24:47.889Z,23.70
2019-06-08T13:27:19.204Z,23.63
2019-06-08T13:29:45.004Z,23.68
2019-06-08T13:32:13.804Z,23.63
2019-06-08T13:34:41.607Z,23.69
2019-06-08T13:37:10.529Z,23.45
2019-06-08T13:39:38.876Z,23.03
2019-06-08T13:42:07.771Z,22.72
2019-06-08T13:44:37.690Z,22.92
2019-06-08T13:47:05.079Z,23.33
2019-06-08T13:49:32.747Z,23.65
2019-06-08T13:52:00.400Z,23.88
2019-06-08T13:54:31.203Z,23.53
2019-06-08T13:56:58.930Z,23.64
2019-06-08T13:59:30.323Z,23.68
2019-06-08T14:01:57.941Z,23.62
2019-06-08T14:04:25.637Z,23.20
2019-06-08T14:06:53.291Z,23.46
2019-06-08T14:09:22.077Z,23.46
2019-06-08T14:11:50.320Z,23.76
2019-06-08T14:14:19.986Z,23.62
2019-06-08T14:16:50.400Z,23.73
2019-06-08T14:19:19.344Z,23.67
2019-06-08T14:21:47.649Z,23.41
2019-06-08T14:24:18.199Z,23.62
2019-06-08T14:26:44.887Z,23.63
2019-06-08T14:29:12.559Z,23.46
2019-06-08T14:31:40.214Z,23.49
2019-06-08T14:34:10.311Z,23.33
2019-06-08T14:36:40.628Z,23.61
2019-06-08T14:39:10.392Z,23.66
2019-06-08T14:41:35.993Z,23.30
2019-06-08T14:44:03.659Z,23.28
2019-06-08T14:46:31.326Z,23.24
2019-06-08T14:48:58.989Z,23.06
2019-06-08T14:51:47.798Z,23.32
2019-06-08T14:54:17.880Z,23.21
2019-06-08T14:56:44.412Z,23.21
2019-06-08T14:59:12.072Z,23.23
2019-06-08T15:01:39.733Z,22.83
2019-06-08T15:04:08.951Z,22.94
2019-06-08T15:06:38.196Z,23.15
2019-06-08T15:09:08.524Z,22.80
2019-06-08T15:11:37.962Z,22.87
2019-06-08T15:14:04.800Z,22.97
2019-06-08T15:16:32.844Z,23.05
2019-06-08T15:19:00.751Z,23.08
2019-06-08T15:21:32.415Z,22.93
2019-06-08T15:23:58.122Z,22.72
2019-06-08T15:26:32.802Z,22.65
2019-06-08T15:28:55.241Z,22.71
2019-06-08T15:31:23.124Z,22.73
2019-06-08T15:33:50.840Z,22.95
2019-06-08T15:36:20.841Z,22.77
2019-06-08T15:38:48.096Z,22.77
2019-06-08T15:41:18.094Z,22.71
2019-06-08T15:43:45.181Z,22.82
2019-06-08T15:46:12.844Z,22.82
2019-06-08T15:48:40.513Z,22.96
2019-06-08T15:51:08.185Z,22.65
2019-06-08T15:53:37.878Z,22.66
2019-06-08T15:56:05.213Z,22.76
2019-06-08T15:58:33.970Z,22.85
2019-06-08T16:01:01.719Z,22.86
2019-06-08T16:03:29.428Z,22.73
2019-06-08T16:05:57.127Z,22.64
2019-06-08T16:08:25.906Z,22.65
2019-06-08T16:10:53.937Z,22.54
2019-06-08T16:13:21.599Z,22.60
2019-06-08T16:15:49.343Z,22.63
2019-06-08T16:18:17.024Z,22.69
2019-06-08T16:20:44.750Z,22.81
2019-06-08T16:23:12.403Z,22.68
2019-06-08T16:25:40.109Z,22.71
2019-06-08T16:28:07.823Z,22.61
2019-06-08T16:30:35.490Z,22.59
2019-06-08T16:33:03.144Z,22.55
2019-06-08T16:35:31.519Z,22.57
2019-06-08T16:37:59.544Z,22.58
2019-06-08T16:40:27.642Z,22.58
2019-06-08T16:42:55.453Z,22.55
2019-06-08T16:45:23.113Z,22.45
2019-06-08T16:47:50.774Z,22.52
2019-06-08T16:50:24.408Z,22.52
2019-06-08T16:52:47.857Z,22.53
2019-06-08T16:55:15.516Z,22.52
2019-06-08T16:57:43.185Z,22.44
2019-06-08T17:00:30.582Z,22.41
2019-06-08T17:02:40.352Z,22.31
2019-06-08T17:05:08.020Z,22.36
2019-06-08T17:07:35.687Z,22.29
2019-06-08T17:10:03.347Z,22.23
2019-06-08T17:12:31.007Z,22.14
2019-06-08T17:14:58.670Z,22.27
2019-06-08T17:17:26.338Z,22.13
2019-06-08T17:19:54.103Z,22.14
2019-06-08T17:22:21.824Z,22.17
2019-06-08T17:24:49.564Z,22.05
2019-06-08T17:27:26.400Z,22.02
2019-06-08T17:29:46.583Z,22.00
2019-06-08T17:32:14.249Z,21.99
2019-06-08T17:34:42.443Z,21.90
2019-06-08T17:37:10.355Z,21.93
2019-06-08T17:39:38.011Z,21.84
2019-06-08T17:42:05.672Z,21.85
2019-06-08T17:44:34.891Z,21.74
2019-06-08T17:47:02.779Z,21.68
2019-06-08T17:49:30.431Z,21.65
2019-06-08T17:51:58.103Z,21.62
2019-06-08T17:54:25.766Z,21.57
2019-06-08T17:56:53.428Z,21.48
2019-06-08T17:59:21.080Z,21.52
2019-06-08T18:01:48.757Z,21.42
2019-06-08T18:04:17.549Z,21.30
2019-06-08T18:06:47.374Z,21.29
2019-06-08T18:09:14.724Z,21.06
2019-06-08T18:11:43.795Z,21.00
2019-06-08T18:14:11.914Z,21.16
2019-06-08T18:16:42.135Z,21.14
2019-06-08T18:19:09.008Z,21.03
2019-06-08T18:21:38.896Z,21.00
2019-06-08T18:24:07.783Z,20.98
2019-06-08T18:26:38.334Z,20.94
2019-06-08T18:29:04.756Z,20.82
2019-06-08T18:31:32.500Z,20.62
2019-06-08T18:34:02.109Z,20.45
2019-06-08T18:36:29.516Z,20.38
2019-06-08T18:38:58.142Z,20.18
2019-06-08T18:41:27.140Z,20.10
2019-06-08T18:43:54.912Z,19.98
2019-06-08T18:46:22.571Z,20.10
2019-06-08T18:48:50.244Z,20.00
2019-06-08T18:51:17.892Z,19.87
2019-06-08T18:54:05.231Z,19.82
2019-06-08T18:56:14.915Z,19.92
2019-06-08T18:58:43.679Z,19.81
2019-06-08T19:01:11.535Z,19.65
2019-06-08T19:03:43.227Z,19.52
2019-06-08T19:06:10.405Z,19.32
2019-06-08T19:08:40.927Z,19.27
2019-06-08T19:11:08.120Z,19.11
2019-06-08T19:13:37.860Z,19.01
2019-06-08T19:16:07.573Z,18.88
2019-06-08T19:18:35.055Z,18.78
2019-06-08T19:21:02.703Z,18.64
2019-06-08T19:23:30.422Z,18.37
2019-06-08T19:26:00.435Z,18.22
2019-06-08T19:28:35.685Z,18.31
2019-06-08T19:30:58.291Z,18.18
2019-06-08T19:33:28.022Z,18.28
2019-06-08T19:35:58.181Z,18.12
2019-06-08T19:38:27.699Z,17.90
2019-06-08T19:40:54.190Z,17.83
2019-06-08T19:43:21.851Z,17.82
2019-06-08T19:45:51.624Z,17.70
2019-06-08T19:48:19.169Z,17.53
2019-06-08T19:50:47.240Z,17.51
2019-06-08T19:53:18.306Z,17.43
2019-06-08T19:55:51.156Z,17.45
2019-06-08T19:58:14.908Z,17.29
2019-06-08T20:00:44.305Z,17.35
2019-06-08T20:03:12.013Z,17.14
2019-06-08T20:05:41.149Z,17.02
2019-06-08T20:08:08.948Z,17.04
2019-06-08T20:10:36.605Z,16.95
2019-06-08T20:13:04.263Z,17.01
2019-06-08T20:15:31.924Z,16.96
2019-06-08T20:17:59.594Z,16.74
2019-06-08T20:20:27.942Z,16.75
2019-06-08T20:22:58.351Z,16.57
2019-06-08T20:25:27.656Z,16.47
2019-06-08T20:27:54.517Z,16.49
2019-06-08T20:30:22.168Z,16.46
2019-06-08T20:32:52.317Z,16.35
2019-06-08T20:35:19.308Z,16.15
2019-06-08T20:37:47.847Z,16.33
2019-06-08T20:40:17.874Z,16.14
2019-06-08T20:42:49.069Z,16.04
2019-06-08T20:45:14.418Z,15.90
2019-06-08T20:47:42.376Z,15.89
2019-06-08T20:50:10.143Z,15.92
2019-06-08T20:52:37.924Z,15.94
2019-06-08T20:55:07.738Z,15.92
2019-06-08T20:57:35.096Z,16.02
2019-06-08T21:00:08.513Z,15.90
2019-06-08T21:02:32.133Z,15.89
2019-06-08T21:05:00.001Z,15.77
2019-06-08T21:07:28.136Z,15.83
2019-06-08T21:09:58.154Z,15.71
2019-06-08T21:12:25.321Z,15.56
2019-06-08T21:14:54.242Z,15.55
2019-06-08T21:17:22.346Z,15.25
2019-06-08T21:19:50.890Z,15.28
2019-06-08T21:22:18.668Z,15.32
2019-06-08T21:24:50.032Z,15.14
2019-06-08T21:27:17.361Z,15.19
2019-06-08T21:29:53.698Z,15.38
2019-06-08T21:32:14.466Z,14.99
2019-06-08T21:34:42.116Z,15.20
2019-06-08T21:37:09.793Z,15.12
2019-06-08T21:39:39.105Z,14.87
2019-06-08T21:42:07.928Z,14.93
2019-06-08T21:44:37.201Z,15.03
2019-06-08T21:47:05.043Z,14.89
2019-06-08T21:49:32.701Z,14.92
2019-06-08T21:52:01.288Z,14.97
2019-06-08T21:54:29.282Z,14.80
2019-06-08T21:56:59.276Z,14.95
2019-06-08T21:59:26.287Z,15.05
2019-06-08T22:01:55.205Z,14.94
2019-06-08T22:04:23.613Z,14.87
2019-06-08T22:06:51.989Z,14.91
2019-06-08T22:09:19.698Z,14.99
2019-06-08T22:11:47.354Z,15.14
2019-06-08T22:14:15.013Z,15.32
2019-06-08T22:16:42.664Z,15.25
2019-06-08T22:19:10.332Z,15.16
2019-06-08T22:21:37.989Z,15.05
2019-06-08T22:24:07.768Z,14.88
2019-06-08T22:26:35.001Z,14.63
2019-06-08T22:29:03.716Z,14.49
2019-06-08T22:31:31.587Z,14.50
2019-06-08T22:34:02.048Z,14.59
2019-06-08T22:36:28.604Z,14.66
2019-06-08T22:38:58.859Z,14.72
2019-06-08T22:41:28.072Z,14.89
2019-06-08T22:43:58.879Z,14.59
2019-06-08T22:46:25.852Z,14.70
2019-06-08T22:48:54.591Z,14.71
2019-06-08T22:51:22.992Z,14.87
2019-06-08T22:53:50.649Z,14.79
2019-06-08T22:56:18.486Z,14.57
2019-06-08T22:58:48.003Z,14.54
2019-06-08T23:01:18.187Z,14.25
2019-06-08T23:03:47.447Z,14.30
2019-06-08T23:06:17.414Z,14.17
2019-06-08T23:08:44.199Z,14.13
2019-06-08T23:11:11.866Z,13.90
2019-06-08T23:13:39.511Z,13.76
2019-06-08T23:16:08.803Z,13.85
2019-06-08T23:18:37.334Z,13.77
2019-06-08T23:21:06.518Z,13.77
2019-06-08T23:23:34.504Z,13.80
2019-06-08T23:26:03.730Z,14.04
2019-06-08T23:28:31.511Z,14.07
2019-06-08T23:31:10.660Z,14.11
2019-06-08T23:33:28.508Z,14.04
2019-06-08T23:36:33.616Z,14.03
2019-06-08T23:38:27.750Z,14.17
2019-06-08T23:40:54.864Z,13.87
2019-06-08T23:43:22.508Z,13.73
2019-06-08T23:45:50.159Z,13.81
2019-06-08T23:48:17.813Z,13.75
2019-06-08T23:50:47.444Z,13.82
2019-06-08T23:53:14.812Z,13.91
2019-06-08T23:55:42.465Z,13.93
2019-06-08T23:58:11.374Z,13.90
